arxmliv
arxmliv build tool
 
KWARC group
LaTeXML
About
   
 

Detailed info

Back to Homepage

List of missing_macros

No. Date Filename num_warningnum_errornum_xmargok_xmargnum_xmathok_xmathMissing macros
17401 2013-04-13 15:17:02 /1011/1011.1722 59180000[\cP, \cM, \N, \cA, \cX, \cE, \cI, \R, \a, \mm, \cC, \cT, \cH, \cB, \E, \pa]; 2 missing files[{preambule.pwz}, xy.sty].
17402 2013-04-13 15:16:59 /1011/1011.1746 080000[\sodauthor, \rauthor, \address, \sodtitle, \dates, \lat, \PACS, \rtitle].
17403 2013-04-13 15:16:53 /1011/1011.1734 1230000[\varv].
17404 2013-04-13 15:16:29 /1011/1011.1739 010000[\cortext].
17405 2013-04-13 15:16:28 /1011/1011.1703 69290000[{lemma}, {theorem}, \captiontitle, \address, \subfloat, \coaddress, \email, \toP, \E, \toprule, \bottomrule, \received, \Prob, \Normal, \tod, \midrule, \keywords, \OhP, \cmidrule, \Oh, \cellcolor, \runauthor, \FloatBarrier, \reals, \trans, \revised, {pro
17406 2013-04-13 15:16:24 /1011/1011.1721 1210000[\@end@institute].
17407 2013-04-13 15:16:05 /1011/1011.1725 230000[\fnref, \fntext]; 1 missing file[path.sty].
17408 2013-04-13 15:16:01 /1011/1011.1713 5150000[{acknowledgments}, \affil, \sectionnumbers, \lesssim, \citep, \slugcomment, \printfigures, {article}, \authoraddr, \gtrsim, \righthead, \citet, \geometry, \lefthead, \received]; 1 missing file[ametsoc.cls].
17409 2013-04-13 15:15:38 /1011/1011.1728 4250000[\includegraphics, \ShortTitle, \email, \FullConference, \speaker]; 1 missing file[PoS.cls].
17410 2013-04-13 15:15:30 /1011/1011.1558 55550000[\mathds, \Printindex]; 1 missing file[bold-extra.sty].
17411 2013-04-13 15:14:57 /1011/1011.1717 1230000[\citeyear, \doi, \syear, \affiliation, \printaddresses, \runtitle, \volume, \address, \corref, \firstpage, \received, \pubyear, \citeauthoryear, \lastpage, \snm, \fnms, \smonth, {aug}, \issue, \runauthor, \printead, {frontmatter}, \ead]; 1 missing file[a
17412 2013-04-13 15:14:52 /1011/1011.1691 43460000[Align, \xymatrix, \ar]; 1 missing file[xy.sty].
17413 2013-04-13 15:14:10 /1011/1011.1707 1050000[\ShortTitle, \email, \FullConference, \acknowledgments, \speaker]; 1 missing file[PoS.cls].
17414 2013-04-13 15:14:07 /1011/1011.1677 5530000[\xyoption, \lightrulewidth]; 2 missing files[turnstile.sty, IEEEtran.cls].
17415 2013-04-13 15:13:37 /1011/1011.1693 320000[\tablenotetext]; 1 missing file[deluxetable.sty].
17416 2013-04-13 15:13:35 /1011/1011.1658 18100000[\Issue, \inst, \Month, \Reviseddate, \DOIsuffix, \Volume, \keywords, \pagespan, \Copyrightissue, \Year].
17417 2013-04-13 15:13:33 /1011/1011.1695 14130000[\includegraphics, \ShortTitle, \email, \FullConference, \speaker]; 1 missing file[PoS.cls].
17418 2013-04-13 15:13:16 /1011/1011.1699 050000[\extrasenglish, \dateenglish, \captionsenglish]; 2 missing files[esint.sty, xy.sty].
17419 2013-04-13 15:13:06 /1011/1011.1651 44250000[Align, \shortrightarrow, \xymatrix, \ar]; 1 missing file[xy.sty].
17420 2013-04-13 15:13:04 /1011/1011.1674 8520000[{sidewaystable}].
17421 2013-04-13 15:12:23 /1011/1011.1675 860000[{acknowledgments}, \includegraphics, \ShortTitle, \email, \FullConference, \speaker]; 1 missing file[PoS.cls].
17422 2013-04-13 15:12:19 /1011/1011.1654 2920000[\geometry]; 1 missing file[tipa.sty].
17423 2013-04-13 15:12:08 /1011/1011.1669 410000[\+].
17424 2013-04-13 15:12:01 /1011/1011.1665 2450000[\VerbatimFootnotes]; 1 missing file[fancyvrb.sty].
17425 2013-04-13 15:11:55 /1011/1011.1652 11630000[\xspace, \gtrsim, \lesssim, \makezeustitle, {mcbibliography}, \epsfig, \text, \prepnum]; 1 missing file[zeus_paper.cls].
17426 2013-04-13 15:11:54 /1011/1011.1633 245130000[Align, \xymatrix, \ar, \CompileMatrices]; 9 missing files[xycurve.sty, xymatrix.sty, xyline.sty, xyarrow.sty, xycmtip.sty, xycolor.sty, xyrotate.sty, xyframe.sty, xygraph.sty].
17427 2013-04-13 15:11:35 /1011/1011.1641 137120000[\cyrk, \CYRF, \CYRT, \cyrr, \cyrt, \cyro, \cyre, \cyrz, \cyra, \cyri, \CYRM]; 1 missing file[T2Aenc.def].
17428 2013-04-13 15:11:30 /1011/1011.1625 278780000[\wn, {exas}, \lsuper, \rrbracket, {exa}, \theappendix, \address, \subjclass, {lem}, {defi}, {cor}, \parr, \theoremstyle, \lmcsheading, \keywords, Align, \with, \UnaryInfC, \RightLabel, \email, \rsuper, \infer, \llbracket, {thm}, {prooftree}, \deduce, {pr
17429 2013-04-13 15:11:20 /1011/1011.1607 60960000[{keywords}, \IEEEauthorblockA, \IEEEauthorblockN, \appendices, {proof}, \IEEEauthorrefmark]; 1 missing file[IEEEtran.cls].
17430 2013-04-13 15:11:07 /1011/1011.1646 670000[\arxivnumber, \affiliation, \emailAdd, \note, \acknowledgments, \keywords]; 1 missing file[jheppub.sty].
17431 2013-04-13 15:10:27 /1011/1011.1644 310000[\@end@institute].
17432 2013-04-13 15:10:19 /1011/1011.1649 020000[\institute]; 1 missing file[sao1.sty].
17433 2013-04-13 15:09:21 /1011/1011.1602 2070000[\RCSRevision, \cmidrule, \midrule, \toprule, \bottomrule, \RCS]; 1 missing file[rcs.sty].
17434 2013-04-13 15:09:16 /1011/1011.1608 1830000[\node, \arrow, {diagram}].
17435 2013-04-13 15:09:03 /1011/1011.1611 850000[Align, \xymatrix, \geometry, \ar]; 1 missing file[xy.sty].
17436 2013-04-13 15:09:01 /1011/1011.1536 6960000[Align, \xymatrix, \ar]; 2 missing files[mathtext.sty, xy.sty].
17437 2013-04-13 15:08:57 /1011/1011.1627 830000[\stackbin]; 2 missing files[multibib.sty, stackrel.sty].
17438 2013-04-13 15:08:31 /1011/1011.1618 310000[\theappendix].
17439 2013-04-13 15:08:14 /1011/1011.1596 39120000[\urto, \rto, \dto, \diagram, \uto, \urrto, \xyoption, \enddiagram, \rrto]; 3 missing files[psboxit.sty, std, xy.sty].
17440 2013-04-13 15:08:03 /1011/1011.1606 13240000[Align, \xymatrix, \ar].
17441 2013-04-13 15:07:44 /1011/1011.1491 1205130000[\mathds, \geometry].
17442 2013-04-13 15:07:18 /1011/1011.1585 710000[\mathds].
17443 2013-04-13 15:06:51 /1011/1011.1584 10100000[{IEEEkeywords}, \IEEEPARstart, \IEEEauthorblockA, \IEEEauthorblockN, \IEEEpeerreviewmaketitle, \ifCLASSOPTIONcaptionsoff, \ifCLASSINFOpdf]; 1 missing file[IEEEtran.cls].
17444 2013-04-13 15:06:51 /1011/1011.1600 030000[\extrasenglish, \dateenglish, \captionsenglish].
17445 2013-04-13 15:06:34 /1011/1011.1572 11110000[\fancyplain, {itemize*}]; 1 missing file[mdwlist.sty].
17446 2013-04-13 15:06:30 /1011/1011.1541 29410000[\QATOPD].
17447 2013-04-13 15:06:01 /1011/1011.1563 2220000[\affil]; 1 missing file[authblk.sty].
17448 2013-04-13 15:05:41 /1011/1011.1579 290000[\includegraphics, \affil, \citep, \citet, \resizebox, \resetcounters]; 1 missing file[asp2010.sty].
17449 2013-04-13 15:05:36 /1011/1011.1580 190000[\includegraphics, \affil, \citep, \rotatebox, \citet, \resizebox, \resetcounters]; 1 missing file[asp2010.sty].
17450 2013-04-13 15:05:33 /1011/1011.1521 60380000[{lemma}, \N, {theorem}, \dist, \U, \midmid, \M, {proposition}, \abs, \seq, \Mf, \im, \szg, \norm, \integral, \s, \absdot, \href, {theorem*}, \setdef, {remark}, \MC, \interior, \tr, \satx, \Mfhat, \Matx, \R, {definition}, \sC, \D, \grpquot, \Vol, \carr, \
17451 2013-04-13 15:05:18 /1011/1011.1551 220000[\bodymatter]; 1 missing file[ws.sty].
17452 2013-04-13 15:04:59 /1011/1011.1543 2510000[\dint].
17453 2013-04-13 15:04:56 /1011/1011.1557 3210000[\dashline].
17454 2013-04-13 15:04:26 /1011/1011.1528 1330000[\mathds, \sh]; 1 missing file[shuffle.sty].
17455 2013-04-13 15:04:16 /1011/1011.1539 2130000[\theappendix, \@end@institute]; 1 missing file[fix-cm.sty].
17456 2013-04-13 15:04:16 /1011/1011.1547 380000[\affaddr, \numberofauthors, \terms, \alignauthor, \keywords, \email, \category, \balancecolumns].
17457 2013-04-13 15:04:15 /1011/1011.1518 13230000[\nicefrac, \affil]; 1 missing file[authblk.sty].
17458 2013-04-13 15:04:10 /1011/1011.1545 1010000[\@end@institute].
17459 2013-04-13 15:03:53 /1011/1011.1534 450000[\includegraphics, \ShortTitle, \email, \FullConference, \speaker]; 1 missing file[PoS.cls].
17460 2013-04-13 15:03:48 /1011/1011.1513 2560000[\affiliation, \emailAdd, \allowdisplaybreaks, \acknowledgments, \keywords]; 1 missing file[jcappub.sty].
17461 2013-04-13 15:03:13 /1011/1011.1317 9150000[Align, \xymatrix, \sslash, \ar]; 1 missing file[xy.sty].
17462 2013-04-13 15:03:06 /1011/1011.1447 49270000[\theendnotes, \endnote, \textnumero]; 1 missing file[T2Aenc.def].
17463 2013-04-13 15:03:01 /1011/1011.1492 24110000[\QATOPD].
17464 2013-04-13 15:01:55 /1011/1011.1511 1400000[\includegraphics, \ShortTitle, \email, \FullConference, \speaker]; 1 missing file[PoS.cls].
17465 2013-04-13 15:01:52 /1011/1011.1530 140000[\address, \email, \runningtitle, \etal]; 1 missing file[eas.cls].
17466 2013-04-13 15:01:42 /1011/1011.1505 1810000[\slashed].
17467 2013-04-13 15:01:37 /1011/1011.1483 31340000[\setenumerate].
17468 2013-04-13 15:01:29 /1011/1011.1490 710000[\theappendix].
17469 2013-04-13 15:01:20 /1011/1011.1496 350000[\citep, \affiliation, \citet, \jname]; 2 missing files[ar2e1.cls, ARAstroBib.sty].
17470 2013-04-13 15:00:57 /1011/1011.1508 110000[\geometry].
17471 2013-04-13 15:00:50 /1011/1011.1509 1130000[\includegraphics, \ShortTitle, \email, \FullConference, \acknowledgments, \speaker]; 1 missing file[PoS.cls].
17472 2013-04-13 14:59:34 /1011/1011.1478 39230000[\SetKwComment, \Comment, \overt, \For, \LinesNumbered, {comment}, \subfloat, \tnotetext, \KwTo, \cortext, \Input, \bigovert, \SetKwInOut, \ForEach, \Output, \SetKwData, \BlankLine, \SetKwFunction]; 1 missing file[MnSymbol.sty].
17473 2013-04-13 14:59:26 /1011/1011.1470 5990000[{prove3}, {prove1}, \newproof, {provesolweak}, {provesolstrong}, {appendices}, {prove}, {prove2}, \cortext].
17474 2013-04-13 14:59:20 /1011/1011.1464 11340000[\dTo, Align, \diagramstyle, \rTo, {diagram}]; 1 missing file[flafter.sty].
17475 2013-04-13 14:59:02 /1011/1011.1471 080000[\affil, \apj, \pasp, \reference, {references}, \plottwo]; 1 missing file[colloqOHP2010.sty].
17476 2013-04-13 14:58:44 /1011/1011.1462 11100000[\@footnotetext]; 9 missing files[xycurve.sty, xymatrix.sty, xyline.sty, xyarrow.sty, xycmtip.sty, xycolor.sty, xyrotate.sty, xyframe.sty, xygraph.sty].
17477 2013-04-13 14:58:31 /1011/1011.1463 110000[\cortext].
17478 2013-04-13 14:58:24 /1011/1011.1468 4710000[\theappendix].
17479 2013-04-13 14:58:08 /1011/1011.1455 460000[\includegraphics, \hair, \pinlabel, \endlabellist, \labellist]; 1 missing file[pinlabel.sty].
17480 2013-04-13 14:58:03 /1011/1011.1456 040000[\extrasenglish, \mathds, \dateenglish, \captionsenglish].
17481 2013-04-13 14:57:56 /1011/1011.1443 0290000[\colorbox, \capstart, \colonequals, {overpic}, \textcolor, \ket]; 2 missing files[hypcap.sty, colonequals.sty].
17482 2013-04-13 14:57:51 /1011/1011.1457 2140000[\Abstract, \ArticleName, {theorem}, \EmailD, \ShortArticleName, \FirstPageHeading, \Address, \pdfbookmark, \LastPageEnding, \Classification, \ArticleDates, \Author, \AuthorNameForHeading, \Keywords].
17483 2013-04-13 14:57:36 /1011/1011.1458 850000[{acknowledgments}, \righthead, \slugcomment, \authoraddr, \lefthead]; 1 missing file[aguplus.cls].
17484 2013-04-13 14:57:30 /1011/1011.1444 6180000[\dTo, Align, \rTo, {diagram}].
17485 2013-04-13 14:57:23 /1011/1011.1441 810000[{comment}].
17486 2013-04-13 14:57:22 /1011/1011.1442 2060000[\affil, \shortauthors, \shorttitle, \altaffiltext, \keywords, \altaffilmark]; 1 missing file[emulateapj_accepted.cls].
17487 2013-04-13 14:57:15 /1011/1011.1401 8620000[\affil]; 1 missing file[authblk.sty].
17488 2013-04-13 14:57:11 /1011/1011.1440 4730000[\captionnamefont]; 1 missing file[ccaption.sty].
17489 2013-04-13 14:56:46 /1011/1011.1448 1940000[Align, \cortext, \psfrag, \biboptions].
17490 2013-04-13 14:56:42 /1011/1011.1367 910000[\dbigvee].
17491 2013-04-13 14:56:33 /1011/1011.1450 3730000[\squared, \per, \kelvin, \celsius, \angstrom, \centi, \tesla, \percent, \metre, \nano, \tera, \volt, \meter, \second, \SI, \ohm, \milli, \micro, \bbar, \cubic, \electronvolt]; 1 missing file[siunitx.sty].
17492 2013-04-13 14:56:20 /1011/1011.1438 810000[\theappendix].
17493 2013-04-13 14:56:07 /1011/1011.1391 32210000[\mathhexbox].
17494 2013-04-13 14:55:49 /1011/1011.1435 3130000[\includegraphics, \ShortTitle, \email, \FullConference, \speaker]; 1 missing file[PoS.cls].
17495 2013-04-13 14:55:38 /1011/1011.1430 10110000[\notip, \dto, \rto, \definemorphism, \diagram, Align, \enddiagram, \ddto, \Solid, \dgleich]; 1 missing file[pslatex.sty].
17496 2013-04-13 14:55:21 /1011/1011.1427 1210000[\set].
17497 2013-04-13 14:55:12 /1011/1011.1429 1640000[Align, \xymatrix, \ar]; 1 missing file[xy.sty].
17498 2013-04-13 14:54:35 /1011/1011.1413 210000[\theappendix].
17499 2013-04-13 14:54:27 /1011/1011.1419 12840000[Align, \xymatrix, \ar]; 1 missing file[xy.sty].
17500 2013-04-13 14:54:05 /1011/1011.1415 040000[Align, \xymatrix, \ar]; 1 missing file[xy.sty].
17501 2013-04-13 14:53:56 /1011/1011.1417 720000[\meter]; 1 missing file[soul.sty].
17502 2013-04-13 14:53:37 /1011/1011.1396 6480000[\theappendix]; 6 missing files[ulsy.sty, tocloft.sty, xy.sty, abstract.sty, mathbbol.sty, ascii.sty].
17503 2013-04-13 14:53:36 /1011/1011.1399 820000[{comment}]; 1 missing file[version.sty].
17504 2013-04-13 14:53:00 /1011/1011.1381 27580000[\doi, \syear, \affiliation, \printaddresses, \thankstext, \volume, {definition*}, \bid, \address, \thanksref, \bfnm, \operatorname, \dvtx, \byear, \corref, \firstpage, \endbibitem, \received, \kwd, \mathbb, \bauthor, \snm, \btitle, \tfrac, \smonth, {aug}
17505 2013-04-13 14:52:58 /1011/1011.1382 1320000[\save, \xymatrix, \xy, \frm, \POS, \endxy, Align, \restore, \dir, \ar]; 1 missing file[xy.sty].
17506 2013-04-13 14:52:47 /1011/1011.1301 20270000[\apj, \citep, \pasj, \endfirsthead, \aap, \endfoot, \Accepted, \email, \endlastfoot, \KeyWords, \draft, \endhead, {longtable}, \altaffilmark, \Received, \aplett, Align, \mnras, \apjs, \altaffiltext, \citet, \SetRunningHead]; 1 missing file[pasj00.cls].
17507 2013-04-13 14:52:28 /1011/1011.1392 27150000[\GlueArc, \FullConference, \DashArrowLine, \ShortTitle, \Vertex, \Text, \DashCArc, \email, \SetWidth, \CCirc, \SetScale, \Gluon, \DashLine, \geometry, \speaker]; 1 missing file[PoS.cls].
17508 2013-04-13 14:52:00 /1011/1011.1383 2630000[\@end@institute].
17509 2013-04-13 14:51:54 /1011/1011.1398 480000[\lesssim, \FullConference, \acknowledgments, \ShortTitle, \includegraphics, \email, \gtrsim, \speaker]; 1 missing file[PoS.cls].
17510 2013-04-13 14:51:30 /1011/1011.1388 340000[\ShortTitle, \email, \FullConference, \speaker]; 1 missing file[PoS.cls].
17511 2013-04-13 14:51:10 /1011/1011.1314 178170000[{xy}, \mathinner, \ar]; 1 missing file[xy.sty].
17512 2013-04-13 14:50:55 /1011/1011.1380 1520000[\sep]; 1 missing file[gensymb.sty].
17513 2013-04-13 14:50:47 /1011/1011.1350 2510000[\young].
17514 2013-04-13 14:50:37 /1011/1011.1357 6910000[\psfrag].
17515 2013-04-13 14:50:29 /1011/1011.1356 9040000[\mathbb]; 3 missing files[tensor.sty, fouridx.sty, mathbbol.sty].
17516 2013-04-13 14:50:19 /1011/1011.1352 4850000[\authorblockN, \authorblockA, {proof}]; 2 missing files[stfloats.sty, IEEEtran.cls].
17517 2013-04-13 14:50:08 /1011/1011.1369 140000[\eqref, \layoutstyle, \classification]; 1 missing file[{aipcheck}].
17518 2013-04-13 14:49:58 /1011/1011.1353 27180000[\mathbb, \FullConference, \acknowledgments, \ShortTitle, \FIGURE, \includegraphics, Align, \email, \TABULAR, \speaker]; 2 missing files[PoS.cls, mathbbol.sty].
17519 2013-04-13 14:49:36 /1011/1011.1358 440000[\ShortTitle, \email, \FullConference, \speaker]; 1 missing file[PoS.cls].
17520 2013-04-13 14:49:22 /1011/1011.1359 450000[\includegraphics, \ShortTitle, \email, \FullConference, \speaker]; 1 missing file[PoS.cls].
17521 2013-04-13 14:49:01 /1011/1011.1345 120000[\keywords]; 2 missing files[afterpage.sty, JINST.cls].
17522 2013-04-13 14:48:57 /1011/1011.1338 2740000[\psfrag, \midrule, \toprule, \bottomrule].
17523 2013-04-13 14:48:49 /1011/1011.1335 6620000[{proof}]; 1 missing file[QED.sty].
17524 2013-04-13 14:48:29 /1011/1011.1334 540000[\includegraphics, \kword, \abst, \inst]; 1 missing file[jpsj3.cls].
17525 2013-04-13 14:47:52 /1011/1011.1322 230000[\ShortTitle, \email, \FullConference]; 1 missing file[PoS.cls].
17526 2013-04-13 14:47:50 /1011/1011.1249 872250000[\geometry].
17527 2013-04-13 14:47:34 /1011/1011.1323 3160000[\includegraphics, \ShortTitle, \mathbb, \email, \FullConference, \speaker]; 1 missing file[PoS.cls].
17528 2013-04-13 14:47:23 /1011/1011.1313 930000[\@nx, \@xp].
17529 2013-04-13 14:47:21 /1011/1011.1327 030000[\extrasenglish, \dateenglish, \captionsenglish].
17530 2013-04-13 14:47:14 /1011/1011.1330 29190000[Align, \SelectTips, \xymatrix, \ar]; 1 missing file[xy.sty].
17531 2013-04-13 14:46:41 /1011/1011.1278 24960000[{overpic}]; 1 missing file[pictex.sty].
17532 2013-04-13 14:46:39 /1011/1011.1320 7250000[\mathds, \email, \subjclass, \keywords].
17533 2013-04-13 14:46:37 /1011/1011.1307 2150000[Align, \xymatrix, \mathinner, \ar]; 1 missing file[xy.sty].
17534 2013-04-13 14:46:08 /1011/1011.1302 140000[\ShortTitle, \email, \FullConference, \speaker]; 1 missing file[PoS.cls].
17535 2013-04-13 14:45:46 /1011/1011.1299 650000[Align, \xymatrix, \mathinner, \ar]; 1 missing file[xy.sty].
17536 2013-04-13 14:45:08 /1011/1011.1295 6480000[\nouppercase]; 1 missing file[ed.sty].
17537 2013-04-13 14:44:49 /1011/1011.1274 17120000[Align, \xymatrix, \ar]; 9 missing files[xycurve.sty, xymatrix.sty, xyline.sty, xyarrow.sty, xycmtip.sty, xycolor.sty, xyrotate.sty, xyframe.sty, xygraph.sty].
17538 2013-04-13 14:44:46 /1011/1011.1273 2450000[\extrasenglish, \geometry, \dateenglish, \captionsenglish]; 1 missing file[esint.sty].
17539 2013-04-13 14:44:37 /1011/1011.1279 2240000[{algorithm}, \State, {algorithmic}].
17540 2013-04-13 14:44:36 /1011/1011.1263 2250000[\For, {algorithm}].
17541 2013-04-13 14:44:30 /1011/1011.1286 1210000[\slashed].
17542 2013-04-13 14:43:35 /1011/1011.1267 1060000[\subref].
17543 2013-04-13 14:43:33 /1011/1011.1276 4170000[{tablenotes}, \tnote, {threeparttable}]; 2 missing files[threeparttable.sty, soul.sty].
17544 2013-04-13 14:43:29 /1011/1011.1280 5140000[\cmidrulekern, \aboverulesep, \cmidrulesep, \midrule, \heavyrulewidth, \cmidrulewidth, \belowrulesep, \cmidrule, \defaultaddspace, \lightrulewidth, \bottomrule]; 3 missing files[afterpage.sty, lastpage.sty, balance.sty].
17545 2013-04-13 14:42:45 /1011/1011.1235 47480000[\mathds, \geometry].
17546 2013-04-13 14:42:42 /1011/1011.1246 7220000[\slashed]; 1 missing file[fancyvrb.sty].
17547 2013-04-13 14:42:35 /1011/1011.1254 5200000[\arcmin, \apj, \inst, \accepted, \Month, \publonline, \email, \arcsec, \titlerunning, \fnmsep, \authorrunning, \received, \Issue, \Yearsubmission, \institute, \Yearpublication, \Volume, \mnras, \Pagespan, \acknowledgements].
17548 2013-04-13 14:42:28 /1011/1011.1241 0170000[\extrasenglish, \dateenglish, \captionsenglish].
17549 2013-04-13 14:42:26 /1011/1011.1176 239420000[{algorithm}, \If, \thechapter, \pagemark, \MakeFramed, \EndIf, \clearscrplain, \Procedure, \setkomafont, \EndFor, \includepdf, \Tree, \Else, \EndWhile, \headmark, \Call, \endMakeFramed, \State, \FrameRestore, \clearscrheadings, \EndProcedure, \Comment, \
17550 2013-04-13 14:42:15 /1011/1011.1240 23180000[\iddots].
17551 2013-04-13 14:41:47 /1011/1011.1196 68710000[\marginsize].
17552 2013-04-13 14:41:39 /1011/1011.1250 13750000[Align, \xymatrix, \ar]; 2 missing files[datetime.sty, xy.sty].
17553 2013-04-13 14:41:34 /1011/1011.1213 154220000[\slashed, \mathds, \subfloat, \FloatBarrier, \subref, \normalem, \MoveEqLeft]; 1 missing file[mathtools.sty].
17554 2013-04-13 14:41:22 /1011/1011.1247 69160000[Align, \xymatrix, \ar]; 13 missing files[xycurve.sty, xymatrix.sty, xyline.sty, xyarrow.sty, xycmtip.sty, xycolor.sty, xyrotate.sty, xy.sty, xyframe.sty, xygraph.sty, pst-func.sty, tensor.sty, pst-fill.sty].
17555 2013-04-13 14:41:07 /1011/1011.1237 1470000[\AUTHOR, \TITLE, \EMAIL, \AFF, \psfrag, \ABSTRACT, \ARTICLEAUTHORS]; 1 missing file[informs1.cls].
17556 2013-04-13 14:40:29 /1011/1011.1233 32230000[{tikzpicture}, {algorithm}, \addlegendentry, \uIf, \SetKwInOut, \tikzstyle, \Else, \While, \addplot, \pgfplotsset, {axis}, \Input]; 4 missing files[pgfplots.sty, pgf.sty, microtype.sty, scrartcl.cls].
17557 2013-04-13 14:39:58 /1011/1011.1229 3910000[\subfloat].
17558 2013-04-13 14:39:44 /1011/1011.1221 3720000[{comment}, \psfrag].
17559 2013-04-13 14:39:21 /1011/1011.1225 10240000[\psfrag, {psfrags}, {proof}]; 1 missing file[IEEEtran.cls].
17560 2013-04-13 14:39:13 /1011/1011.1239 010000[\@end@institute].
17561 2013-04-13 14:38:54 /1011/1011.1223 010000[\psfrag].
17562 2013-04-13 14:38:33 /1011/1011.1230 880000[\theappendix].
17563 2013-04-13 14:38:28 /1011/1011.1228 020000[Align, \cortext].
17564 2013-04-13 14:38:15 /1011/1011.1218 6310000[\varangle].
17565 2013-04-13 14:38:04 /1011/1011.1201 10170000[\theendnotes, \endnote].
17566 2013-04-13 14:38:01 /1011/1011.1203 25250000[Align, {xy}, \xymatrix, \geometry, \ar]; 3 missing files[xy.sty, abstract.sty, scrartcl.cls].
17567 2013-04-13 14:37:14 /1011/1011.1206 8680000[\pacs, \inst, \shortauthor, \institute, \Name, \acknowledgements, \etal, \REVIEW]; 1 missing file[epl2.cls].
17568 2013-04-13 14:36:57 /1011/1011.1183 1340000[Align, \xymatrix, \ar]; 1 missing file[xy.sty].
17569 2013-04-13 14:36:55 /1011/1011.1208 10350000[\includegraphics, \ShortTitle, \email, \FullConference, \speaker]; 1 missing file[PoS.cls].
17570 2013-04-13 14:36:42 /1011/1011.1209 0170000[\affil, \paperID, \keywords, \altaffilmark, \paindex, \email, \reference, {references}, \altaffiltext, \plottwo, \contact]; 2 missing files[asp2006.sty, adassconf.sty].
17571 2013-04-13 14:36:41 /1011/1011.1184 18560000[\includepdf, \@end@institute]; 2 missing files[aps-bibstyle.sty, pdfpages.sty].
17572 2013-04-13 14:36:32 /1011/1011.1172 2391000000[Align, \xymatrix, \ar]; 1 missing file[xy.sty].
17573 2013-04-13 14:36:29 /1011/1011.1193 760000[\includegraphics, \ShortTitle, \email, \FullConference, \speaker]; 1 missing file[PoS.cls].
17574 2013-04-13 14:36:13 /1011/1011.1082 18110000[\displaylimits].
17575 2013-04-13 14:35:24 /1011/1011.1189 0130000[\refaddr, \pacs, \addresses, \addr, \keywords]; 1 missing file[cmpj2e.sty].
17576 2013-04-13 14:35:17 /1011/1011.1190 3310000[\mathds].
17577 2013-04-13 14:35:16 /1011/1011.1187 5550000[\opencite, \citeyear, \surname, \institute, \runningtitle, {opening}, {article}, {acks}, \keywords, \sep, \runningauthor, \inlinecite]; 2 missing files[spr-sola-addons.sty, SolarPhysics.cls].
17578 2013-04-13 14:35:00 /1011/1011.1136 6420000[\fnref, \fntext].
17579 2013-04-13 14:34:49 /1011/1011.1161 1130000[\theappendix].
17580 2013-04-13 14:34:43 /1011/1011.1171 010000[\pdfminorversion].
17581 2013-04-13 14:34:29 /1011/1011.1178 0300000[\ocis, \pspie, \includegraphics, \address, \josa, \ao, \prb, \aprop, \ol]; 1 missing file[osajnl2.sty].
17582 2013-04-13 14:34:13 /1011/1011.1170 030000[\extrasenglish, \dateenglish, \captionsenglish].
17583 2013-04-13 14:34:03 /1011/1011.1153 2020000[\ack, \ead].
17584 2013-04-13 14:34:00 /1011/1011.1165 4120000[\includegraphics, \FIGURE, \ShortTitle, \href, \email, \FullConference, \acknowledgments, \speaker]; 2 missing files[PoS.cls, mathbbol.sty].
17585 2013-04-13 14:33:45 /1011/1011.1158 360000[\sectionfont, \subsectionfont]; 4 missing files[lastpage.sty, mhchem.sty, balance.sty, sectsty.sty].
17586 2013-04-13 14:33:34 /1011/1011.1160 6230000[\doi, \affiliation, \runtitle, \volume, \address, \setattribute, \corref, \firstpage, \pubyear, \kwd, \MR, \freefootnotetext, \lastpage, \snm, {keyword}, \fnms, {aug}, \issue, \runauthor, \printead, {frontmatter}, \ead]; 2 missing files[flushend.sty, arx
17587 2013-04-13 14:33:12 /1011/1011.1138 1410000[\mathds].
17588 2013-04-13 14:33:10 /1011/1011.1135 2280000[\subfloat, \@end@institute, \subref]; 1 missing file[fix-cm.sty].
17589 2013-04-13 14:33:06 /1011/1011.1139 41340000[\citeyear, \doi, \bolds, \affiliation, \runtitle, \volume, \href, \address, \dvtx, \operatorname, \hyperref, \citeauthor, \corref, \firstpage, \url, \texorpdfstring, \pubyear, \citeauthoryear, \kwd, \MR, \lastpage, \snm, {keyword}, \fnms, {aug}, \issue,
17590 2013-04-13 14:32:52 /1011/1011.1147 270000[\editors, \affiliation, \jname, \etal, \keywords, \volume, \pubyear]; 1 missing file[iaus.cls].
17591 2013-04-13 14:32:45 /1011/1011.1131 010000[\fancyplain].
17592 2013-04-13 14:32:40 /1011/1011.1122 250000[\includegraphics, \ccode, \catchline, \keywords]; 1 missing file[ws.sty].
17593 2013-04-13 14:32:21 /1011/1011.1123 090000[\includegraphics, \affil, \citep, \citet, \acknowledgements, \resetcounters]; 1 missing file[asp2010.sty].
17594 2013-04-13 14:32:17 /1011/1011.1129 140000[\affil, \tightenlines, \affilmark]; 1 missing file[pazha.sty].
17595 2013-04-13 14:32:15 /1011/1011.1126 070000[\includegraphics, \affil, \citep, \acknowledgements, \resetcounters]; 1 missing file[asp2010.sty].
17596 2013-04-13 14:32:14 /1011/1011.1113 010000[\extrarowheight].
17597 2013-04-13 14:32:11 /1011/1011.1098 272830000[\doi, \bolds, \affiliation, \volume, {example}, \address, {MM*}, \operatorname, \corref, \firstpage, {APF*}, \citeauthoryear, \kwd, \mathbb, \snm, {SF*}, {PS*}, {PL*}, {aug}, \issue, {LWF*}, \runauthor, {frontmatter}, \citeyear, {alg}, {longlist}, \runti
17598 2013-04-13 14:32:10 /1011/1011.1111 040000[\eqref, {theacknowledgments}, \layoutstyle, \classification].
17599 2013-04-13 14:31:41 /1011/1011.1061 42170000[Align, \xymatrix, \ar].
17600 2013-04-13 14:31:33 /1011/1011.1109 1520000[\theappendix, \cortext].
<<< >>>

[0] [200] [400] [600] [800] [1000] [1200] [1400] [1600] [1800] [2000] [2200] [2400] [2600] [2800] [3000] [3200] [3400] [3600] [3800] [4000] [4200] [4400] [4600] [4800] [5000] [5200] [5400] [5600] [5800] [6000] [6200] [6400] [6600] [6800] [7000] [7200] [7400] [7600] [7800] [8000] [8200] [8400] [8600] [8800] [9000] [9200] [9400] [9600] [9800] [10000] [10200] [10400] [10600] [10800] [11000] [11200] [11400] [11600] [11800] [12000] [12200] [12400] [12600] [12800] [13000] [13200] [13400] [13600] [13800] [14000] [14200] [14400] [14600] [14800] [15000] [15200] [15400] [15600] [15800] [16000] [16200] [16400] [16600] [16800] [17000] [17200] [17400] [17600] [17800] [18000] [18200] [18400] [18600] [18800] [19000] [19200] [19400] [19600] [19800] [20000] [20200] [20400] [20600] [20800] [21000] [21200] [21400] [21600] [21800] [22000] [22200] [22400] [22600] [22800] [23000] [23200] [23400] [23600] [23800] [24000] [24200] [24400] [24600] [24800] [25000] [25200] [25400] [25600] [25800] [26000] [26200] [26400] [26600] [26800] [27000] [27200] [27400] [27600] [27800] [28000] [28200] [28400] [28600] [28800] [29000] [29200] [29400] [29600] [29800] [30000] [30200] [30400] [30600] [30800] [31000] [31200] [31400] [31600] [31800] [32000] [32200] [32400] [32600] [32800] [33000] [33200] [33400] [33600] [33800] [34000] [34200] [34400] [34600] [34800] [35000] [35200] [35400] [35600] [35800] [36000] [36200] [36400] [36600] [36800] [37000] [37200] [37400] [37600] [37800] [38000] [38200] [38400] [38600] [38800] [39000] [39200] [39400] [39600] [39800] [40000] [40200] [40400] [40600] [40800] [41000] [41200] [41400] [41600] [41800] [42000] [42200] [42400] [42600] [42800] [43000] [43200] [43400] [43600] [43800] [44000] [44200] [44400] [44600] [44800] [45000] [45200] [45400] [45600] [45800] [46000] [46200] [46400] [46600] [46800] [47000] [47200] [47400] [47600] [47800] [48000] [48200] [48400] [48600] [48800] [49000] [49200] [49400] [49600] [49800] [50000] [50200] [50400] [50600] [50800] [51000] [51200] [51400] [51600] [51800] [52000] [52200] [52400] [52600] [52800] [53000] [53200] [53400] [53600] [53800] [54000] [54200] [54400] [54600] [54800] [55000] [55200] [55400] [55600] [55800] [56000] [56200] [56400] [56600] [56800] [57000] [57200] [57400] [57600] [57800] [58000] [58200] [58400] [58600] [58800] [59000] [59200] [59400] [59600] [59800] [60000] [60200] [60400] [60600] [60800] [61000] [61200] [61400] [61600] [61800] [62000] [62200] [62400] [62600] [62800] [63000] [63200] [63400] [63600] [63800] [64000] [64200] [64400] [64600] [64800] [65000] [65200] [65400] [65600] [65800] [66000] [66200] [66400] [66600] [66800] [67000] [67200] [67400] [67600] [67800] [68000] [68200] [68400] [68600] [68800] [69000] [69200] [69400] [69600] [69800] [70000] [70200] [70400] [70600] [70800] [71000] [71200] [71400] [71600] [71800] [72000] [72200] [72400] [72600] [72800] [73000] [73200] [73400] [73600] [73800] [74000] [74200] [74400] [74600] [74800] [75000] [75200] [75400] [75600] [75800] [76000] [76200] [76400] [76600] [76800] [77000] [77200] [77400] [77600] [77800] [78000] [78200] [78400] [78600] [78800] [79000] [79200] [79400] [79600] [79800] [80000] [80200] [80400] [80600] [80800] [81000] [81200] [81400] [81600] [81800] [82000] [82200] [82400] [82600] [82800] [83000] [83200] [83400] [83600] [83800] [84000] [84200] [84400] [84600] [84800] [85000] [85200] [85400] [85600] [85800] [86000] [86200] [86400] [86600] [86800] [87000] [87200] [87400] [87600] [87800] [88000] [88200] [88400] [88600] [88800] [89000] [89200] [89400] [89600] [89800] [90000] [90200] [90400] [90600] [90800] [91000] [91200] [91400] [91600] [91800] [92000] [92200] [92400] [92600] [92800] [93000] [93200] [93400] [93600] [93800] [94000] [94200] [94400] [94600] [94800] [95000] [95200] [95400] [95600] [95800] [96000] [96200] [96400] [96600] [96800] [97000] [97200] [97400] [97600] [97800] [98000] [98200] [98400] [98600] [98800] [99000] [99200] [99400] [99600] [99800] [100000] [100200] [100400] [100600] [100800] [101000] [101200] [101400] [101600] [101800] [102000] [102200] [102400] [102600] [102800] [103000] [103200] [103400] [103600] [103800] [104000] [104200] [104400] [104600] [104800] [105000] [105200] [105400] [105600] [105800] [106000] [106200] [106400] [106600] [106800] [107000] [107200] [107400] [107600] [107800] [108000] [108200] [108400] [108600] [108800] [109000] [109200] [109400] [109600] [109800] [110000] [110200] [110400] [110600] [110800] [111000] [111200] [111400] [111600] [111800] [112000] [112200] [112400] [112600] [112800] [113000] [113200] [113400] [113600] [113800] [114000] [114200] [114400] [114600] [114800] [115000] [115200] [115400] [115600] [115800] [116000] [116200] [116400] [116600] [116800] [117000] [117200] [117400] [117600] [117800] [118000] [118200] [118400] [118600] [118800] [119000] [119200] [119400] [119600] [119800] [120000] [120200] [120400] [120600] [120800] [121000] [121200] [121400] [121600] [121800] [122000] [122200] [122400] [122600] [122800] [123000] [123200] [123400] [123600] [123800] [124000] [124200] [124400] [124600] [124800] [125000] [125200] [125400] [125600] [125800] [126000] [126200] [126400] [126600] [126800] [127000] [127200] [127400] [127600] [127800] [128000] [128200] [128400] [128600] [128800] [129000] [129200] [129400] [129600] [129800] [130000] [130200] [130400] [130600] [130800] [131000] [131200] [131400] [131600] [131800] [132000] [132200] [132400] [132600] [132800] [133000] [133200] [133400] [133600] [133800] [134000] [134200] [134400] [134600] [134800] [135000] [135200] [135400] [135600] [135800] [136000] [136200] [136400] [136600] [136800] [137000] [137200] [137400] [137600] [137800] [138000] [138200] [138400] [138600] [138800] [139000] [139200] [139400] [139600] [139800] [140000] [140200] [140400] [140600] [140800] [141000] [141200] [141400] [141600] [141800] [142000] [142200] [142400] [142600] [142800] [143000] [143200] [143400] [143600] [143800] [144000] [144200] [144400] [144600] [144800] [145000] [145200] [145400] [145600] [145800] [146000] [146200] [146400] [146600] [146800] [147000] [147200] [147400] [147600] [147800] [148000] [148200] [148400] [148600] [148800] [149000] [149200] [149400] [149600] [149800] [150000] [150200] [150400] [150600] [150800] [151000] [151200] [151400] [151600] [151800] [152000] [152200] [152400] [152600] [152800] [153000] [153200] [153400] [153600] [153800] [154000] [154200] [154400] [154600] [154800] [155000] [155200] [155400] [155600] [155800] [156000] [156200] [156400] [156600] [156800] [157000] [157200] [157400] [157600] [157800] [158000] [158200] [158400] [158600] [158800] [159000] [159200] [159400] [159600] [159800] [160000] [160200] [160400] [160600] [160800] [161000] [161200] [161400] [161600] [161800] [162000] [162200] [162400] [162600] [162800] [163000] [163200] [163400] [163600] [163800] [164000] [164200] [164400] [164600]
 
  The service has been written by
Heinrich Stamerjohanns